LOWI/INN METAR and TAF weather

Enter ICAO airport designator
Station Type Date Time Source
LOWI METAR 2022/06/28 14:20 UTC NOAA

LOWI 281420Z 06005KT 020V100 4700 RA VCTS FEW013 SCT050 FEW060CB BKN100 18/17 Q1020 TEMPO -TSRA


Station Type Date Time Source
LOWI Decoded METAR 2022/06/28 14:20 UTC NOAA

Innsbruck-Flughafen, Austria (LOWI) 47-16N 011-21E 593M
Jun 28, 2022 - 10:20 AM EDT / 2022.06.28 1420 UTC
Wind: from the ENE (060 degrees) at 6 MPH (5 KT) (direction variable):0
Visibility: 2 mile(s):0
Sky conditions: mostly cloudy
Weather: rain; thunder in the vicinity; Cumulonimbus clouds observed
Temperature: 64 F (18 C)
Dew Point: 62 F (17 C)
Relative Humidity: 93%
Pressure (altimeter): 30.12 in. Hg (1020 hPa)
ob: LOWI 281420Z 06005KT 020V100 4700 RA VCTS FEW013 SCT050 FEW060CB BKN100 18/17 Q1020 TEMPO -TSRA
cycle: 14

Station Type Date Time Source
LOWI TAF 2022/06/28 12:21 UTC NOAA

TAF LOWI 281115Z 2812/2912 08005KT 9999 SCT040 BKN060 TX25/2813Z TN17/2903Z
TEMPO 2812/2818 VRB15G30KT TSRA FEW050CB BKN060
TEMPO 2822/2912 27012KT SHRA PROB40
TEMPO 2822/2912 VRB15G25KT TSRA FEW040CB BKN050

Example: see airport list